Time;durP1;ratioP1;P1;durP2;ratioP2;P2;SDS_P1;SDS_P2;PMS_P1;PMS_P2;Temp;Humidity;BMP_temperature;BMP_pressure;BME280_temperature;BME280_humidity;BME280_pressure;Samples;Min_cycle;Max_cycle;Signal;HPM_P1;HPM_P2
2022/05/01 00:22:51;;;;;;;16.30;8.68;;;;;;;9.38;68.46;101310.78;6275037;22;20019;-69
2022/05/01 00:25:16;;;;;;;15.63;9.15;;;;;;;9.49;68.52;101329.06;6219221;22;20095;-69
2022/05/01 00:27:42;;;;;;;17.95;9.48;;;;;;;9.48;67.93;101321.94;6272991;22;20092;-69
2022/05/01 00:30:07;;;;;;;13.25;9.27;;;;;;;9.35;68.19;101303.06;6246226;22;20023;-69
2022/05/01 00:36:25;;;;;;;16.10;8.63;;;;;;;9.28;67.37;101291.44;6276336;22;19995;-70
2022/05/01 00:38:03;;;;;;;19.17;10.02;;;;;;;9.40;67.08;101311.34;6276398;22;20046;-66
2022/05/01 00:40:31;;;;;;;14.13;8.85;;;;;;;9.22;67.29;101291.28;6246587;22;20446;-75
2022/05/01 00:43:01;;;;;;;11.60;8.02;;;;;;;9.34;67.22;101298.66;6228729;22;20008;-71
2022/05/01 00:45:26;;;;;;;14.02;8.13;;;;;;;9.37;66.52;101311.84;6246078;22;20019;-73
2022/05/01 00:47:52;;;;;;;13.43;8.52;;;;;;;9.38;66.83;101308.03;6224309;22;20004;-74
2022/05/01 00:50:17;;;;;;;13.02;7.68;;;;;;;9.32;66.51;101295.34;6253380;22;20073;-74
2022/05/01 00:52:43;;;;;;;12.38;8.35;;;;;;;9.37;66.87;101309.09;6281573;22;20033;-74
2022/05/01 00:55:10;;;;;;;12.93;9.57;;;;;;;9.39;66.95;101298.78;6280221;22;20010;-75
2022/05/01 00:57:36;;;;;;;19.90;8.90;;;;;;;9.37;66.81;101293.53;6255625;22;20067;-74
2022/05/01 01:00:04;;;;;;;16.58;9.18;;;;;;;9.43;66.35;101297.22;6255478;22;20080;-75
2022/05/01 01:02:31;;;;;;;15.52;8.32;;;;;;;9.40;66.15;101297.72;6255854;22;20055;-75
2022/05/01 01:04:57;;;;;;;13.15;8.52;;;;;;;9.40;66.58;101300.44;6277477;22;20038;-71
2022/05/01 01:07:26;;;;;;;14.32;8.00;;;;;;;9.37;66.31;101299.00;6278627;22;20003;-73
2022/05/01 01:09:51;;;;;;;17.02;8.43;;;;;;;9.35;66.71;101292.97;6252213;22;20003;-74
2022/05/01 01:15:08;;;;;;;13.82;8.73;;;;;;;9.32;66.32;101290.72;6279570;22;20465;-72
2022/05/01 01:17:36;;;;;;;13.70;7.40;;;;;;;9.34;65.85;101293.19;6253684;22;20034;-72
2022/05/01 01:20:11;;;;;;;15.05;8.68;;;;;;;9.33;66.33;101289.66;6278020;22;20003;-72
2022/05/01 01:22:40;;;;;;;11.07;7.70;;;;;;;9.33;66.49;101286.06;6278595;22;20320;-73
2022/05/01 01:25:11;;;;;;;12.68;7.85;;;;;;;9.31;66.36;101283.59;6278971;22;20011;-73
2022/05/01 01:27:42;;;;;;;15.32;7.68;;;;;;;9.35;66.29;101283.97;6276609;22;20013;-73
2022/05/01 01:32:53;;;;;;;10.57;7.78;;;;;;;9.37;65.97;101274.44;6276750;22;20042;-72
2022/05/01 01:35:25;;;;;;;14.15;8.40;;;;;;;9.41;66.15;101277.53;6279367;22;20008;-70
2022/05/01 01:37:53;;;;;;;11.80;8.10;;;;;;;9.44;65.98;101277.06;6198702;22;20102;-70
2022/05/01 01:40:22;;;;;;;11.70;7.50;;;;;;;9.45;66.06;101270.53;6275591;22;20004;-71
2022/05/01 01:42:54;;;;;;;8.48;6.28;;;;;;;9.49;65.37;101270.88;6250142;22;20003;-71
2022/05/01 01:45:20;;;;;;;7.13;5.30;;;;;;;9.55;65.36;101267.19;6273541;22;20020;-72
2022/05/01 01:47:49;;;;;;;7.22;4.97;;;;;;;9.61;65.36;101272.53;6276125;22;20011;-71
2022/05/01 01:50:17;;;;;;;5.55;4.20;;;;;;;9.64;64.96;101273.97;6274718;22;20003;-71
2022/05/01 01:52:47;;;;;;;6.82;4.72;;;;;;;9.65;65.59;101262.00;6249606;22;20012;-71
2022/05/01 01:55:17;;;;;;;12.13;5.93;;;;;;;9.60;65.11;101254.50;6246435;22;20039;-69
2022/05/01 01:57:46;;;;;;;6.40;5.07;;;;;;;9.67;65.10;101261.75;6281221;22;20030;-75
2022/05/01 02:00:13;;;;;;;9.68;6.22;;;;;;;9.65;65.00;101250.22;6279090;22;20079;-74
2022/05/01 02:02:39;;;;;;;7.20;5.63;;;;;;;9.69;64.91;101256.88;6279890;22;20004;-74
2022/05/01 02:05:06;;;;;;;6.72;4.97;;;;;;;9.71;64.76;101250.09;6252872;22;20026;-73
2022/05/01 02:07:33;;;;;;;11.73;5.90;;;;;;;9.74;65.01;101255.06;6280943;22;20004;-74
2022/05/01 02:09:59;;;;;;;9.98;5.45;;;;;;;9.76;64.71;101252.09;6253436;22;20075;-74
2022/05/01 02:12:25;;;;;;;9.40;6.85;;;;;;;9.78;64.15;101249.94;6251375;22;20437;-74
2022/05/01 02:14:50;;;;;;;13.32;6.22;;;;;;;9.78;65.00;101249.94;6252026;22;20046;-74
2022/05/01 02:17:15;;;;;;;10.98;5.93;;;;;;;9.79;64.37;101246.16;6278564;22;20019;-74
2022/05/01 02:19:48;;;;;;;8.43;5.10;;;;;;;9.78;64.39;101239.03;6254896;22;20015;-71
2022/05/01 02:22:15;;;;;;;8.30;5.55;;;;;;;9.74;64.35;101237.88;6228492;22;20034;-72
2022/05/01 02:24:40;;;;;;;9.60;6.07;;;;;;;9.76;64.44;101238.44;6222994;22;20023;-72
2022/05/01 02:27:06;;;;;;;11.40;6.10;;;;;;;9.76;64.37;101235.72;6248896;22;20128;-73
2022/05/01 02:29:31;;;;;;;9.95;5.82;;;;;;;9.76;64.62;101230.25;6279690;22;20008;-73
2022/05/01 02:31:57;;;;;;;9.65;6.07;;;;;;;9.79;64.49;101229.75;6254598;22;20007;-74
2022/05/01 02:34:31;;;;;;;11.07;6.68;;;;;;;9.76;64.50;101230.25;6248888;22;20095;-73
2022/05/01 02:36:57;;;;;;;10.63;6.22;;;;;;;9.75;64.59;101217.66;6278516;22;20077;-67
2022/05/01 02:39:23;;;;;;;7.68;5.45;;;;;;;9.74;64.60;101224.22;6248058;22;20000;-68
2022/05/01 02:41:50;;;;;;;7.68;5.85;;;;;;;9.65;64.29;101206.53;6245336;22;20095;-69
2022/05/01 02:44:15;;;;;;;11.98;7.35;;;;;;;9.68;64.26;101211.50;6224351;22;20086;-68
2022/05/01 02:46:41;;;;;;;10.40;6.90;;;;;;;9.73;64.08;101225.28;6246379;22;20103;-69
2022/05/01 02:49:06;;;;;;;9.95;7.32;;;;;;;9.68;64.37;101211.50;6275510;22;20551;-69
2022/05/01 02:51:31;;;;;;;9.75;6.70;;;;;;;9.69;63.71;101218.63;6224070;22;20007;-69
2022/05/01 02:54:01;;;;;;;11.18;7.10;;;;;;;9.69;64.29;101213.16;6247973;22;20018;-70
2022/05/01 02:56:26;;;;;;;8.82;5.78;;;;;;;9.64;64.08;101199.38;6246880;22;20018;-69
2022/05/01 02:58:52;;;;;;;10.73;5.40;;;;;;;9.63;64.59;101204.03;6274471;22;20426;-69
2022/05/01 03:01:17;;;;;;;7.35;5.38;;;;;;;9.61;64.31;101196.09;6221114;22;20334;-67
2022/05/01 03:03:43;;;;;;;7.68;5.55;;;;;;;9.66;64.22;101198.09;6245261;22;20004;-69
2022/05/01 03:06:08;;;;;;;13.57;6.63;;;;;;;9.64;64.42;101197.50;6248399;22;20677;-70
2022/05/01 03:08:34;;;;;;;10.52;7.22;;;;;;;9.69;64.51;101213.16;6221371;22;20030;-69
2022/05/01 03:11:01;;;;;;;11.20;6.55;;;;;;;9.66;63.73;101197.25;6274779;22;20026;-69
2022/05/01 03:13:27;;;;;;;10.18;6.35;;;;;;;9.67;63.98;101205.22;6273613;22;20011;-69
2022/05/01 03:15:52;;;;;;;10.85;7.10;;;;;;;9.68;64.22;101201.44;6225133;22;20276;-68
2022/05/01 03:23:47;;;;;;;11.25;7.72;;;;;;;9.60;63.83;101194.41;6278830;22;20106;-69
2022/05/01 03:26:13;;;;;;;14.10;7.70;;;;;;;9.58;64.19;101185.66;6224071;22;20018;-70
2022/05/01 03:28:39;;;;;;;11.82;7.25;;;;;;;9.56;63.89;101187.78;6273533;22;20091;-68
2022/05/01 03:31:09;;;;;;;14.60;8.85;;;;;;;9.55;64.18;101191.59;6223028;22;20007;-69
2022/05/01 03:33:35;;;;;;;13.45;7.97;;;;;;;9.49;64.71;101187.09;6249360;22;20003;-73
2022/05/01 03:36:06;;;;;;;13.02;7.38;;;;;;;9.49;64.34;101186.25;6279544;22;20018;-73
2022/05/01 03:38:39;;;;;;;13.57;8.52;;;;;;;9.45;64.30;101175.00;6280211;22;20004;-73
2022/05/01 03:41:09;;;;;;;9.80;7.10;;;;;;;9.46;65.20;101179.34;6253110;22;20008;-73
2022/05/01 03:43:36;;;;;;;9.75;5.45;;;;;;;9.46;64.72;101173.06;6278256;22;20008;-72
2022/05/01 03:46:04;;;;;;;8.80;5.78;;;;;;;9.43;64.73;101177.09;6278085;22;20024;-73
2022/05/01 03:48:29;;;;;;;16.48;7.38;;;;;;;9.44;65.00;101173.31;6277251;22;20029;-73
2022/05/01 03:50:55;;;;;;;14.65;8.15;;;;;;;9.43;65.02;101179.84;6279061;22;20027;-73
2022/05/01 03:53:21;;;;;;;10.48;7.07;;;;;;;9.39;65.35;101167.78;6250040;22;20019;-72
2022/05/01 03:55:48;;;;;;;10.90;6.82;;;;;;;9.41;64.65;101165.63;6252586;22;20367;-71
2022/05/01 03:58:14;;;;;;;10.43;6.28;;;;;;;9.47;64.99;101178.28;6278362;22;20000;-73
2022/05/01 04:00:44;;;;;;;10.18;6.57;;;;;;;9.44;65.20;101162.41;6283008;22;20019;-72
2022/05/01 04:03:09;;;;;;;10.10;6.57;;;;;;;9.47;64.57;101167.38;6282845;22;20003;-72
2022/05/01 04:05:35;;;;;;;10.98;7.03;;;;;;;9.46;64.96;101167.63;6280711;22;20059;-72
2022/05/01 04:08:00;;;;;;;9.77;6.72;;;;;;;9.45;64.82;101164.06;6278254;22;20011;-72
2022/05/01 04:10:25;;;;;;;10.30;7.03;;;;;;;9.46;64.99;101175.81;6280959;22;20010;-72
2022/05/01 04:12:51;;;;;;;10.30;7.40;;;;;;;9.45;64.49;101169.53;6276898;22;20019;-71
2022/05/01 04:15:17;;;;;;;12.68;7.63;;;;;;;9.43;65.24;101171.66;6254085;22;20007;-71
2022/05/01 04:17:43;;;;;;;12.50;7.80;;;;;;;9.43;65.08;101163.47;6253878;22;20310;-73
2022/05/01 04:20:13;;;;;;;14.98;8.70;;;;;;;9.40;65.34;101162.06;6251688;22;20041;-72
2022/05/01 04:22:39;;;;;;;11.07;7.35;;;;;;;9.38;64.99;101157.91;6279750;22;20059;-72
2022/05/01 04:25:21;;;;;;;14.52;8.40;;;;;;;9.34;65.63;101159.44;6288310;22;20000;-75
2022/05/01 04:27:52;;;;;;;14.73;8.18;;;;;;;9.30;65.70;101150.06;6284309;22;20007;-74
2022/05/01 04:30:20;;;;;;;11.45;7.30;;;;;;;9.32;65.84;101156.97;6260096;22;20026;-73
2022/05/01 04:32:57;;;;;;;13.63;7.97;;;;;;;9.32;65.96;101153.41;6285916;22;20070;-75
2022/05/01 04:35:30;;;;;;;11.68;7.32;;;;;;;9.24;66.11;101141.78;6260659;22;20034;-72
2022/05/01 04:38:00;;;;;;;11.60;7.30;;;;;;;9.32;65.94;101147.97;6285177;22;20015;-73
2022/05/01 04:40:29;;;;;;;13.88;7.82;;;;;;;9.32;65.85;101153.41;6256351;22;20093;-74
2022/05/01 04:43:09;;;;;;;16.60;8.80;;;;;;;9.30;66.52;101156.38;6282842;22;20004;-74
2022/05/01 04:45:36;;;;;;;12.73;7.82;;;;;;;9.26;66.29;101144.28;6284006;22;20043;-72
2022/05/01 04:48:03;;;;;;;14.73;8.95;;;;;;;9.27;66.19;101145.91;6282030;22;20063;-74
2022/05/01 04:50:29;;;;;;;14.20;8.13;;;;;;;9.24;66.75;101141.78;6231393;22;20008;-74
2022/05/01 04:52:55;;;;;;;12.90;7.97;;;;;;;9.29;66.67;101151.13;6252610;22;20012;-74
2022/05/01 04:55:21;;;;;;;10.25;7.13;;;;;;;9.26;66.75;101150.56;6253115;22;20117;-72
2022/05/01 04:57:46;;;;;;;12.57;7.70;;;;;;;9.26;67.26;101144.28;6280507;22;20001;-73
2022/05/01 05:00:18;;;;;;;13.60;8.50;;;;;;;9.25;67.74;101151.63;6255768;22;20007;-73
2022/05/01 05:02:50;;;;;;;13.50;8.32;;;;;;;9.22;67.10;101138.47;6257293;22;20007;-73
2022/05/01 05:05:18;;;;;;;13.27;8.27;;;;;;;9.25;67.72;101143.44;6275329;22;20010;-71
2022/05/01 05:07:44;;;;;;;12.35;7.55;;;;;;;9.25;67.07;101143.44;6279635;22;20015;-70
2022/05/01 05:10:10;;;;;;;10.10;6.78;;;;;;;9.28;67.44;101146.78;6246405;22;20003;-70
2022/05/01 05:12:38;;;;;;;13.75;8.13;;;;;;;9.26;67.92;101138.81;6250097;22;20014;-71
2022/05/01 05:15:07;;;;;;;13.40;7.15;;;;;;;9.30;67.67;101144.63;6246832;22;20008;-71
2022/05/01 05:17:32;;;;;;;13.20;8.35;;;;;;;9.30;67.70;101144.63;6275927;22;20004;-71
2022/05/01 05:19:59;;;;;;;14.80;8.00;;;;;;;9.28;67.30;101141.31;6249702;22;20045;-70
2022/05/01 05:22:24;;;;;;;13.75;8.35;;;;;;;9.28;67.45;101141.31;6274511;22;20096;-71
2022/05/01 05:24:50;;;;;;;11.38;7.93;;;;;;;9.35;67.41;101152.94;6277777;22;20060;-71
2022/05/01 05:27:17;;;;;;;10.55;7.93;;;;;;;9.37;67.61;101156.25;6274542;22;20012;-70
2022/05/01 05:29:43;;;;;;;16.08;8.13;;;;;;;9.40;67.49;101155.75;6245681;22;20027;-71
2022/05/01 05:32:08;;;;;;;14.27;8.82;;;;;;;9.44;68.09;101151.47;6276065;22;20004;-70
2022/05/01 05:34:34;;;;;;;12.18;8.20;;;;;;;9.48;67.46;101149.94;6272848;22;20473;-71
2022/05/01 05:37:00;;;;;;;15.60;8.70;;;;;;;9.53;67.54;101150.03;6276430;22;20449;-70
2022/05/01 05:39:25;;;;;;;10.40;7.72;;;;;;;9.58;66.84;101152.88;6275788;22;20000;-71
2022/05/01 05:41:50;;;;;;;10.90;7.53;;;;;;;9.61;66.74;101152.38;6273594;22;20065;-70
2022/05/01 05:44:16;;;;;;;12.20;6.50;;;;;;;9.68;67.18;101145.94;6249405;22;20015;-70
2022/05/01 05:46:42;;;;;;;9.38;6.65;;;;;;;9.75;66.97;101149.38;6275169;22;20083;-69
2022/05/01 05:49:07;;;;;;;10.70;7.10;;;;;;;9.83;66.56;101154.47;6276807;22;20011;-70
2022/05/01 05:51:33;;;;;;;10.57;7.55;;;;;;;9.90;66.73;101152.41;6249769;22;20292;-70
2022/05/01 05:53:58;;;;;;;12.88;8.98;;;;;;;9.95;66.11;101157.16;6276091;22;20008;-70
2022/05/01 05:56:24;;;;;;;12.25;8.20;;;;;;;9.98;66.28;101155.84;6245535;22;20014;-70
2022/05/01 05:58:50;;;;;;;14.10;7.75;;;;;;;10.04;66.18;101152.94;6276019;22;20006;-72
2022/05/01 06:01:16;;;;;;;8.95;6.57;;;;;;;10.16;65.88;101157.53;6277436;22;20010;-71
2022/05/01 06:03:41;;;;;;;14.60;7.20;;;;;;;10.16;65.58;101141.94;6253364;22;20007;-72
2022/05/01 06:06:07;;;;;;;12.32;7.65;;;;;;;10.23;65.00;101147.28;6276700;22;20008;-70
2022/05/01 06:08:35;;;;;;;14.32;8.10;;;;;;;10.26;64.78;101155.78;6199667;22;20003;-72
2022/05/01 06:11:01;;;;;;;9.45;6.72;;;;;;;10.25;64.92;101151.44;6247970;22;20113;-71
2022/05/01 06:13:27;;;;;;;8.68;6.72;;;;;;;10.29;64.87;101152.59;6249393;22;20079;-70
2022/05/01 06:15:52;;;;;;;9.05;6.38;;;;;;;10.36;64.86;101151.63;6249228;22;20015;-72
2022/05/01 06:18:18;;;;;;;11.75;7.50;;;;;;;10.42;64.91;101153.38;6274210;22;20004;-71
2022/05/01 06:20:44;;;;;;;8.77;6.85;;;;;;;10.48;64.33;101149.66;6248148;22;20018;-71
2022/05/01 06:23:09;;;;;;;15.55;8.73;;;;;;;10.52;64.00;101161.75;6249429;22;20011;-72
2022/05/01 06:25:46;;;;;;;10.98;7.75;;;;;;;10.55;64.03;101158.50;6223793;22;20034;-70
2022/05/01 06:28:15;;;;;;;11.45;7.45;;;;;;;10.63;63.76;101155.38;6225162;22;20007;-70
2022/05/01 06:30:45;;;;;;;10.23;7.22;;;;;;;10.76;63.83;101156.09;6246335;22;20023;-70
2022/05/01 06:33:19;;;;;;;10.82;7.32;;;;;;;10.86;63.67;101161.75;6250248;22;20471;-70
2022/05/01 06:35:49;;;;;;;13.68;9.02;;;;;;;10.91;62.92;101167.31;6273385;22;20580;-69
2022/05/01 06:38:15;;;;;;;13.07;8.00;;;;;;;10.88;62.90;101159.59;6275816;22;20006;-70
2022/05/01 06:40:43;;;;;;;11.88;7.97;;;;;;;10.88;62.50;101161.50;6222561;22;20016;-69
2022/05/01 06:43:09;;;;;;;10.35;6.82;;;;;;;10.93;62.25;101162.41;6249838;22;20010;-69
2022/05/01 06:45:35;;;;;;;9.55;6.78;;;;;;;10.99;62.37;101161.41;6244506;22;20027;-69
2022/05/01 06:48:03;;;;;;;12.70;6.90;;;;;;;11.00;62.09;101157.59;6272787;22;20028;-69
2022/05/01 06:50:33;;;;;;;12.40;7.15;;;;;;;11.30;61.31;101155.53;6225174;22;20010;-69
2022/05/01 06:52:59;;;;;;;10.80;7.25;;;;;;;11.34;61.34;101152.03;6247987;22;20568;-70
2022/05/01 06:55:25;;;;;;;15.93;8.65;;;;;;;11.33;60.62;101146.81;6223993;22;20019;-68
2022/05/01 06:57:52;;;;;;;11.35;7.72;;;;;;;11.42;60.44;101166.38;6224433;22;20042;-73
2022/05/01 07:00:19;;;;;;;10.65;6.72;;;;;;;11.52;60.51;101158.28;6277490;22;20068;-74
2022/05/01 07:02:48;;;;;;;11.65;7.45;;;;;;;11.60;60.50;101155.09;6276749;22;20000;-74
2022/05/01 07:05:14;;;;;;;10.80;7.65;;;;;;;11.84;59.60;101166.63;6252445;22;20590;-75
2022/05/01 07:07:50;;;;;;;10.13;6.55;;;;;;;11.91;59.61;101149.97;6255743;22;20003;-75
2022/05/01 07:10:19;;;;;;;15.40;8.57;;;;;;;12.18;58.31;101158.25;6256359;22;20007;-75
2022/05/01 07:16:30;;;;;;;;;;;;;;;;;;;;;
2022/05/01 07:19:06;;;;;;;11.63;7.32;;;;;;;12.27;57.08;101142.16;6181453;23;20108;-72
2022/05/01 07:21:32;;;;;;;14.38;8.18;;;;;;;12.36;57.27;101157.03;6135935;23;20372;-73
2022/05/01 07:24:00;;;;;;;12.85;7.40;;;;;;;12.44;58.08;101152.19;6160541;23;20012;-74
2022/05/01 07:26:36;;;;;;;;;;;;;;;;;;;;;
2022/05/01 07:29:05;;;;;;;15.15;8.68;;;;;;;12.49;56.88;101149.50;6186154;23;20100;-73
2022/05/01 07:31:33;;;;;;;12.82;7.60;;;;;;;12.60;56.77;101162.22;6162051;23;20008;-73
2022/05/01 07:34:09;;;;;;;9.80;6.90;;;;;;;12.83;56.79;101176.66;6162152;23;20017;-74
2022/05/01 07:36:34;;;;;;;13.32;7.78;;;;;;;13.01;56.20;101172.66;6186596;23;20005;-72
2022/05/01 07:39:09;;;;;;;15.05;8.77;;;;;;;12.95;56.03;101190.19;6183787;23;20005;-74
2022/05/01 07:41:36;;;;;;;15.07;8.55;;;;;;;12.84;56.19;101184.63;6188356;23;20041;-75
2022/05/01 07:44:02;;;;;;;10.50;7.32;;;;;;;13.02;56.81;101191.59;6166981;23;20374;-74
2022/05/01 07:46:28;;;;;;;10.10;7.53;;;;;;;13.18;55.90;101164.25;6149618;23;20025;-74
2022/05/01 07:52:16;;;;;;;11.07;7.35;;;;;;;14.18;53.57;101189.97;6168791;23;20051;-72
2022/05/01 07:54:44;;;;;;;13.10;8.63;;;;;;;14.80;52.13;101179.88;6229881;23;20848;-78
2022/05/01 07:57:09;;;;;;;11.95;7.97;;;;;;;15.32;50.39;101181.47;6233936;23;20081;-74
2022/05/01 07:59:37;;;;;;;15.48;8.55;;;;;;;15.43;48.93;101171.22;6222948;23;20422;-73
2022/05/01 08:02:03;;;;;;;16.88;9.27;;;;;;;15.33;48.89;101187.78;6199233;23;20086;-75
2022/05/01 08:04:28;;;;;;;17.00;8.30;;;;;;;15.12;49.59;101187.03;6223053;23;20334;-74
2022/05/01 08:07:02;;;;;;;13.82;8.43;;;;;;;14.91;50.24;101192.56;6200950;23;20034;-76
2022/05/01 08:09:29;;;;;;;19.20;9.25;;;;;;;14.63;50.90;101196.66;6247324;23;20424;-73
2022/05/01 08:11:57;;;;;;;15.65;9.50;;;;;;;14.25;52.00;101182.28;6252156;23;20004;-76
2022/05/01 08:14:23;;;;;;;13.10;8.45;;;;;;;13.84;53.24;101173.94;6222141;23;20004;-72
2022/05/01 08:16:50;;;;;;;16.35;9.60;;;;;;;13.69;53.90;101177.47;6222616;23;20441;-73
2022/05/01 08:22:00;;;;;;;11.40;5.80;;;;;;;14.04;54.73;101185.00;6248460;23;20018;-73
2022/05/01 08:24:26;;;;;;;7.28;4.90;;;;;;;14.31;54.43;101183.97;6195228;23;20035;-74
2022/05/01 08:26:51;;;;;;;7.28;5.53;;;;;;;14.57;54.06;101192.25;6250413;23;20008;-73
2022/05/01 08:29:17;;;;;;;10.13;6.68;;;;;;;14.64;54.33;101187.31;6250974;23;20028;-74
2022/05/01 08:31:43;;;;;;;10.25;8.13;;;;;;;14.61;54.81;101193.34;6247213;23;20030;-72
2022/05/01 08:34:10;;;;;;;14.27;8.10;;;;;;;14.66;55.68;101185.13;6220049;23;20004;-72
2022/05/01 08:36:36;;;;;;;7.65;6.00;;;;;;;14.82;55.54;101191.44;6219288;23;20019;-73
2022/05/01 08:39:05;;;;;;;8.25;5.90;;;;;;;15.04;55.74;101193.94;6244921;23;20004;-72
2022/05/01 08:41:32;;;;;;;12.55;7.03;;;;;;;15.33;55.70;101193.31;6218350;23;20011;-72
2022/05/01 08:43:59;;;;;;;6.03;4.88;;;;;;;15.63;54.93;101197.09;6220257;23;20035;-71
2022/05/01 08:47:02;;;;;;;11.98;8.43;;;;;;;15.65;54.42;101200.38;6259209;22;20099;-72
2022/05/01 08:49:32;;;;;;;11.70;8.32;;;;;;;15.67;54.17;101195.44;6173053;22;20015;-72
2022/05/01 08:52:00;;;;;;;10.27;5.80;;;;;;;15.86;54.31;101196.47;6246502;22;20011;-73
2022/05/01 08:54:28;;;;;;;12.52;8.10;;;;;;;15.90;54.56;101195.91;6249521;22;20010;-72
2022/05/01 08:56:55;;;;;;;8.77;7.47;;;;;;;15.79;54.76;101195.94;6277401;22;20038;-72
2022/05/01 08:59:20;;;;;;;7.63;6.28;;;;;;;15.72;55.12;101189.88;6276216;22;19996;-72
2022/05/01 09:01:56;;;;;;;9.60;6.00;;;;;;;15.65;54.91;101178.31;6250838;22;20480;-73
2022/05/01 09:04:24;;;;;;;9.35;6.90;;;;;;;15.67;55.44;101192.66;6277087;22;20026;-73
2022/05/01 09:06:50;;;;;;;8.05;5.60;;;;;;;15.72;55.14;101187.13;6253005;22;20003;-76
2022/05/01 09:09:18;;;;;;;7.03;5.57;;;;;;;15.84;55.03;101184.91;6254263;22;20003;-73
2022/05/01 09:14:29;;;;;;;5.80;3.40;;;;;;;16.19;54.89;101188.59;6280131;22;20054;-75
2022/05/01 09:17:18;;;;;;;4.88;3.60;;;;;;;16.39;54.36;101203.34;6281901;22;20011;-73
2022/05/01 09:19:47;;;;;;;8.32;2.80;;;;;;;16.58;54.17;101195.19;6250915;22;20003;-73
2022/05/01 09:22:16;;;;;;;5.07;3.90;;;;;;;16.66;53.80;101202.88;6281413;22;20440;-74
2022/05/01 09:24:41;;;;;;;6.65;4.05;;;;;;;16.62;53.85;101196.28;6280941;22;20006;-76
2022/05/01 09:27:24;;;;;;;6.07;4.40;;;;;;;16.60;53.23;101194.91;6280742;22;20074;-75
2022/05/01 09:30:05;;;;;;;8.40;6.00;;;;;;;16.54;52.66;101206.00;6280684;22;20081;-75
2022/05/01 09:32:37;;;;;;;10.07;7.07;;;;;;;16.37;51.69;101206.41;6253819;22;20007;-75
2022/05/01 09:35:04;;;;;;;11.35;5.95;;;;;;;16.32;52.69;101180.75;6256799;22;20010;-75
2022/05/01 09:37:29;;;;;;;9.00;6.13;;;;;;;16.39;52.69;101203.34;6255473;22;20037;-77
2022/05/01 09:39:54;;;;;;;9.05;6.68;;;;;;;16.25;53.03;101208.66;6231065;22;20008;-76
2022/05/01 09:42:21;;;;;;;6.32;4.85;;;;;;;16.09;52.82;101199.69;6254142;22;20022;-76
2022/05/01 09:45:08;;;;;;;4.68;3.97;;;;;;;16.17;52.83;101196.31;6230180;22;20057;-76
2022/05/01 09:47:38;;;;;;;3.72;2.63;;;;;;;16.16;52.71;101204.88;6281348;22;20011;-75
2022/05/01 09:50:05;;;;;;;4.47;3.50;;;;;;;16.05;53.66;101207.69;6281070;22;20432;-75
2022/05/01 09:52:57;;;;;;;7.28;4.82;;;;;;;15.90;54.07;101206.94;6252389;22;20018;-74
2022/05/01 09:55:23;;;;;;;6.45;5.00;;;;;;;15.84;54.54;101206.97;6281161;22;19995;-73
2022/05/01 09:57:49;;;;;;;5.63;3.65;;;;;;;15.96;54.16;101200.28;6228831;22;19999;-72
2022/05/01 10:00:35;;;;;;;6.70;4.47;;;;;;;16.05;54.30;101193.06;6281173;22;20057;-72
2022/05/01 10:03:20;;;;;;;3.45;2.88;;;;;;;16.25;54.07;101205.09;6256443;22;20012;-75
2022/05/01 10:05:48;;;;;;;4.50;2.75;;;;;;;16.32;53.61;101205.59;6282990;22;20000;-76
2022/05/01 10:08:15;;;;;;;3.78;3.15;;;;;;;16.46;53.80;101203.84;6285401;22;20486;-75
2022/05/01 10:10:44;;;;;;;6.65;4.75;;;;;;;16.51;53.37;101190.00;6259759;22;20337;-76
2022/05/01 10:13:10;;;;;;;5.05;3.88;;;;;;;16.62;52.97;101201.81;6259037;22;20008;-74
2022/05/01 10:15:39;;;;;;;4.15;2.60;;;;;;;16.82;52.47;101189.78;6282338;22;20022;-75
2022/05/01 10:18:05;;;;;;;5.80;2.63;;;;;;;17.11;52.00;101194.50;6257339;22;19999;-73
2022/05/01 10:20:33;;;;;;;3.38;2.30;;;;;;;17.21;51.85;101191.63;6282973;22;20010;-72
2022/05/01 10:22:59;;;;;;;5.18;4.25;;;;;;;17.20;51.50;101189.16;6254972;22;20079;-73
2022/05/01 10:25:25;;;;;;;6.70;4.85;;;;;;;16.91;51.19;101192.78;6284038;22;20449;-75
2022/05/01 10:28:05;;;;;;;8.93;4.30;;;;;;;16.65;50.98;101190.19;6283213;22;20008;-72
2022/05/01 10:33:47;;;;;;;6.85;4.35;;;;;;;15.73;52.54;101182.44;6276973;22;20062;-72
2022/05/01 10:36:27;;;;;;;12.77;6.72;;;;;;;15.43;53.56;101182.25;6250482;22;20004;-72
2022/05/01 10:39:10;;;;;;;9.82;6.10;;;;;;;15.26;54.46;101168.81;6280242;22;20290;-77
2022/05/01 10:41:46;;;;;;;8.93;6.35;;;;;;;15.24;55.00;101181.22;6279069;22;20008;-74
2022/05/01 10:44:36;;;;;;;14.57;7.30;;;;;;;15.02;54.25;101176.84;6251064;22;20059;-73
2022/05/01 10:52:11;;;;;;;11.70;7.38;;;;;;;14.66;55.46;101179.63;6135885;22;20140;-74
2022/05/01 10:55:12;;;;;;;14.88;7.68;;;;;;;14.69;56.69;101175.47;6142145;23;20014;-74
2022/05/01 10:58:36;;;;;;;;;;;;;;;;;;;;;
2022/05/01 11:01:03;;;;;;;9.98;6.80;;;;;;;14.62;55.93;101112.47;6065074;23;20038;-77
2022/05/01 11:03:49;;;;;;;;;;;;;;;;;;;;;
2022/05/01 11:06:22;;;;;;;9.77;5.78;;;;;;;14.77;54.07;101148.22;6284831;22;20039;-74
2022/05/01 11:08:50;;;;;;;7.28;4.40;;;;;;;14.60;50.73;101164.16;6251337;22;20057;-74
2022/05/01 11:11:20;;;;;;;4.70;3.75;;;;;;;14.20;52.18;101158.34;6278567;22;20069;-73
2022/05/01 11:13:50;;;;;;;7.10;4.75;;;;;;;14.08;53.75;101147.63;6225020;22;20018;-72
2022/05/01 11:16:15;;;;;;;7.07;4.88;;;;;;;13.96;54.18;101144.28;6250530;22;20000;-74
2022/05/01 11:18:41;;;;;;;6.40;5.03;;;;;;;14.07;54.41;101150.63;6224764;22;20685;-75
2022/05/01 11:21:22;;;;;;;9.25;5.10;;;;;;;14.11;54.09;101152.56;6279311;22;20034;-75
2022/05/01 11:24:10;;;;;;;7.32;4.97;;;;;;;14.24;54.21;101150.41;6279015;22;20003;-74
2022/05/01 11:26:36;;;;;;;8.85;6.18;;;;;;;14.47;54.45;101136.09;6253712;22;20008;-75
2022/05/01 11:29:19;;;;;;;10.13;5.13;;;;;;;14.69;53.39;101139.69;6252695;22;20070;-75
2022/05/01 11:31:46;;;;;;;10.25;4.45;;;;;;;14.68;53.84;101133.38;6229699;22;20050;-74
2022/05/01 11:34:22;;;;;;;6.20;5.03;;;;;;;14.80;52.78;101131.16;6250657;22;20028;-74
2022/05/01 11:37:07;;;;;;;7.85;5.32;;;;;;;14.81;53.52;101126.50;6282054;22;20330;-72
2022/05/01 11:39:51;;;;;;;6.10;3.80;;;;;;;15.26;53.23;101123.88;6279326;22;20027;-72
2022/05/01 11:42:36;;;;;;;7.90;4.15;;;;;;;15.91;52.60;101131.38;6253877;22;20469;-73
2022/05/01 11:45:04;;;;;;;3.97;3.58;;;;;;;16.56;51.19;101126.47;6230010;22;20012;-74
2022/05/01 11:47:34;;;;;;;8.70;5.20;;;;;;;16.92;48.73;101123.41;6284195;22;20019;-74
2022/05/01 11:50:01;;;;;;;3.50;2.90;;;;;;;17.24;48.69;101118.38;6256194;22;20011;-73
2022/05/01 11:52:27;;;;;;;5.57;3.50;;;;;;;17.27;48.29;101115.84;6282510;22;20330;-72
2022/05/01 11:54:53;;;;;;;8.70;4.82;;;;;;;17.15;47.95;101125.66;6229190;22;20022;-72
2022/05/01 12:02:57;;;;;;;8.63;5.60;;;;;;;16.12;50.62;101116.34;6283895;22;20047;-75
2022/05/01 12:05:23;;;;;;;8.13;5.53;;;;;;;16.09;51.19;101116.91;6256519;22;20008;-74
2022/05/01 12:07:59;;;;;;;7.82;5.43;;;;;;;16.53;50.81;101110.50;6254035;22;20604;-72
2022/05/01 12:10:25;;;;;;;6.40;5.25;;;;;;;16.50;49.30;101115.75;6281104;22;20468;-72
2022/05/01 12:12:51;;;;;;;6.63;4.75;;;;;;;16.14;49.33;101118.81;6280349;22;20030;-73
2022/05/01 12:15:16;;;;;;;4.28;3.20;;;;;;;15.87;50.16;101104.34;6280362;22;20015;-73
2022/05/01 12:17:43;;;;;;;6.88;4.63;;;;;;;15.93;49.62;101096.03;6230870;22;20010;-72
2022/05/01 12:23:24;;;;;;;8.43;3.75;;;;;;;16.81;47.79;101085.13;6277321;22;20053;-68
2022/05/01 12:25:51;;;;;;;7.90;3.97;;;;;;;17.32;46.49;101089.25;6276487;22;20086;-68
2022/05/01 12:28:18;;;;;;;5.85;3.70;;;;;;;17.29;46.51;101085.16;6249891;22;20011;-69
2022/05/01 12:30:49;;;;;;;12.68;4.60;;;;;;;17.49;45.55;101081.28;6277956;22;20007;-70
2022/05/01 12:33:24;;;;;;;5.75;4.43;;;;;;;17.51;45.12;101084.59;6249271;22;20063;-68
2022/05/01 12:36:00;;;;;;;5.05;4.00;;;;;;;17.53;45.33;101087.88;6276996;22;20014;-67
2022/05/01 12:38:30;;;;;;;5.65;3.70;;;;;;;17.83;45.12;101073.91;6250960;22;20004;-67
2022/05/01 12:44:03;;;;;;;5.53;4.38;;;;;;;17.92;45.15;101091.53;6253494;22;20073;-69
2022/05/01 12:46:30;;;;;;;8.75;5.50;;;;;;;18.12;44.17;101093.13;6250238;22;20023;-70